createdAt,value
2018-02-17T00:00:41.527Z,100962.03
2018-02-17T00:03:09.103Z,100951.94
2018-02-17T00:05:36.750Z,100962.55
2018-02-17T00:08:04.323Z,100961.12
2018-02-17T00:10:31.964Z,100957.97
2018-02-17T00:12:59.530Z,100962.80
2018-02-17T00:15:27.164Z,100964.55
2018-02-17T00:17:54.752Z,100969.89
2018-02-17T00:20:22.327Z,100962.45
2018-02-17T00:22:49.995Z,100960.61
2018-02-17T00:25:17.571Z,100954.46
2018-02-17T00:27:45.191Z,100962.41
2018-02-17T00:30:12.760Z,100965.63
2018-02-17T00:32:40.438Z,100968.86
2018-02-17T00:35:08.002Z,100972.67
2018-02-17T00:37:35.590Z,100973.87
2018-02-17T00:40:03.224Z,100979.38
2018-02-17T00:42:30.786Z,100976.39
2018-02-17T00:44:58.456Z,100976.86
2018-02-17T00:47:26.079Z,100978.70
2018-02-17T00:49:53.677Z,100986.84
2018-02-17T00:52:21.244Z,100989.78
2018-02-17T00:54:48.936Z,100987.67
2018-02-17T00:57:16.514Z,100988.60
2018-02-17T00:59:44.088Z,100986.33
2018-02-17T01:02:11.673Z,100992.20
2018-02-17T01:04:39.306Z,100985.84
2018-02-17T01:07:06.990Z,100990.88
2018-02-17T01:09:34.567Z,100994.23
2018-02-17T01:12:02.246Z,100994.73
2018-02-17T01:14:29.825Z,100994.06
2018-02-17T01:16:57.444Z,100993.30
2018-02-17T01:19:25.033Z,100985.86
2018-02-17T01:21:52.585Z,100994.11
2018-02-17T01:24:20.228Z,101000.36
2018-02-17T01:26:47.863Z,100999.95
2018-02-17T01:29:15.503Z,100999.62
2018-02-17T01:31:43.075Z,100997.44
2018-02-17T01:34:10.642Z,100999.70
2018-02-17T01:36:38.221Z,100990.03
2018-02-17T01:39:05.791Z,100989.00
2018-02-17T01:41:33.366Z,100986.80
2018-02-17T01:44:00.921Z,100989.73
2018-02-17T01:46:28.546Z,100983.74
2018-02-17T01:48:56.171Z,100983.25
2018-02-17T01:51:23.754Z,100981.63
2018-02-17T01:53:51.377Z,100991.09
2018-02-17T01:56:18.951Z,100990.73
2018-02-17T01:58:46.634Z,101003.89
2018-02-17T02:01:14.205Z,101000.98
2018-02-17T02:03:41.827Z,100999.81
2018-02-17T02:06:09.398Z,101003.20
2018-02-17T02:08:36.963Z,101003.59
2018-02-17T02:11:04.607Z,101014.05
2018-02-17T02:13:32.240Z,101015.66
2018-02-17T02:15:59.818Z,101017.32
2018-02-17T02:18:27.395Z,101015.69
2018-02-17T02:20:54.996Z,101014.41
2018-02-17T02:23:22.562Z,101015.53
2018-02-17T02:25:50.192Z,101021.20
2018-02-17T02:28:17.776Z,101023.34
2018-02-17T02:30:45.408Z,101017.36
2018-02-17T02:33:12.988Z,101023.50
2018-02-17T02:35:40.621Z,101022.88
2018-02-17T02:38:08.245Z,101023.50
2018-02-17T02:40:35.820Z,101024.47
2018-02-17T02:43:03.383Z,101032.02
2018-02-17T02:45:30.970Z,101027.35
2018-02-17T02:47:58.609Z,101027.39
2018-02-17T02:50:26.199Z,101033.61
2018-02-17T02:52:53.766Z,101033.69
2018-02-17T02:55:21.400Z,101025.33
2018-02-17T02:57:48.964Z,101034.12
2018-02-17T03:00:16.538Z,101035.23
2018-02-17T03:02:44.192Z,101031.70
2018-02-17T03:05:11.754Z,101031.34
2018-02-17T03:07:39.400Z,101024.92
2018-02-17T03:10:06.968Z,101030.29
2018-02-17T03:12:34.661Z,101026.87
2018-02-17T03:15:02.336Z,101038.30
2018-02-17T03:17:30.015Z,101037.59
2018-02-17T03:19:57.594Z,101042.64
2018-02-17T03:22:25.167Z,101044.97
2018-02-17T03:24:52.751Z,101049.15
2018-02-17T03:27:20.362Z,101049.77
2018-02-17T03:29:48.070Z,101054.05
2018-02-17T03:32:15.702Z,101052.00
2018-02-17T03:34:43.337Z,101046.72
2018-02-17T03:37:10.917Z,101055.14
2018-02-17T03:39:38.505Z,101054.78
2018-02-17T03:42:06.094Z,101050.47
2018-02-17T03:44:33.671Z,101051.02
2018-02-17T03:47:01.312Z,101059.76
2018-02-17T03:49:28.891Z,101055.88
2018-02-17T03:51:56.460Z,101053.34
2018-02-17T03:54:24.047Z,101059.34
2018-02-17T03:56:51.679Z,101066.09
2018-02-17T03:59:19.271Z,101064.31
2018-02-17T04:01:46.835Z,101074.37
2018-02-17T04:04:14.458Z,101073.38
2018-02-17T04:06:42.034Z,101067.70
2018-02-17T04:09:09.624Z,101077.91
2018-02-17T04:11:37.202Z,101072.00
2018-02-17T04:14:04.768Z,101075.50
2018-02-17T04:16:32.350Z,101069.42
2018-02-17T04:18:59.937Z,101073.79
2018-02-17T04:21:27.551Z,101068.64
2018-02-17T04:23:55.099Z,101068.85
2018-02-17T04:26:22.666Z,101061.66
2018-02-17T04:28:50.306Z,101068.31
2018-02-17T04:31:17.935Z,101060.95
2018-02-17T04:33:45.576Z,101055.31
2018-02-17T04:36:13.207Z,101058.69
2018-02-17T04:38:40.877Z,101059.89
2018-02-17T04:44:10.555Z,101058.43
2018-02-17T04:46:43.830Z,101054.10
2018-02-17T04:52:31.375Z,101054.22
2018-02-17T04:58:18.886Z,101039.61
2018-02-17T05:00:51.895Z,101038.50
2018-02-17T05:06:32.330Z,101051.78
2018-02-17T05:09:01.411Z,101043.63
2018-02-17T05:11:29.035Z,101052.31
2018-02-17T05:14:02.294Z,101050.13
2018-02-17T05:16:35.537Z,101048.03
2018-02-17T05:19:03.979Z,101054.61
2018-02-17T05:21:48.383Z,101057.55
2018-02-17T05:27:27.267Z,101062.20
2018-02-17T05:29:54.884Z,101062.07
2018-02-17T05:32:27.386Z,101075.28
2018-02-17T05:35:01.614Z,101073.74
2018-02-17T05:37:29.298Z,101071.47
2018-02-17T05:43:04.962Z,101072.11
2018-02-17T05:45:32.559Z,101072.10
2018-02-17T05:48:02.069Z,101081.29
2018-02-17T05:50:30.150Z,101077.41
2018-02-17T05:52:57.722Z,101066.23
2018-02-17T05:55:25.298Z,101061.66
2018-02-17T05:57:52.866Z,101067.56
2018-02-17T06:00:20.531Z,101061.98
2018-02-17T06:02:48.094Z,101072.38
2018-02-17T06:05:15.707Z,101074.53
2018-02-17T06:07:43.395Z,101075.80
2018-02-17T06:10:11.007Z,101080.00
2018-02-17T06:12:38.733Z,101076.11
2018-02-17T06:15:06.306Z,101083.02
2018-02-17T06:17:33.870Z,101084.14
2018-02-17T06:20:01.450Z,101087.34
2018-02-17T06:22:29.252Z,101085.33
2018-02-17T06:24:56.865Z,101098.81
2018-02-17T06:27:24.427Z,101097.97
2018-02-17T06:29:52.048Z,101100.86
2018-02-17T06:32:19.609Z,101105.56
2018-02-17T06:34:47.207Z,101109.22
2018-02-17T06:37:14.782Z,101111.16
2018-02-17T06:39:42.415Z,101106.38
2018-02-17T06:42:09.995Z,101111.20
2018-02-17T06:44:37.562Z,101124.79
2018-02-17T06:47:05.185Z,101125.59
2018-02-17T06:49:32.758Z,101118.02
2018-02-17T06:52:00.378Z,101118.09
2018-02-17T06:54:28.012Z,101128.81
2018-02-17T06:56:55.636Z,101127.89
2018-02-17T06:59:23.303Z,101124.45
2018-02-17T07:01:50.947Z,101126.48
2018-02-17T07:04:18.593Z,101130.20
2018-02-17T07:06:46.227Z,101124.06
2018-02-17T07:09:13.795Z,101133.84
2018-02-17T07:11:41.432Z,101126.83
2018-02-17T07:14:08.999Z,101130.23
2018-02-17T07:16:36.582Z,101127.60
2018-02-17T07:19:04.271Z,101129.06
2018-02-17T07:21:31.986Z,101129.19
2018-02-17T07:23:59.560Z,101123.14
2018-02-17T07:26:27.126Z,101122.24
2018-02-17T07:28:54.803Z,101115.70
2018-02-17T07:31:22.379Z,101112.38
2018-02-17T07:33:49.972Z,101113.33
2018-02-17T07:36:17.542Z,101106.69
2018-02-17T07:38:45.230Z,101102.53
2018-02-17T07:41:12.806Z,101101.69
2018-02-17T07:43:40.383Z,101097.84
2018-02-17T07:46:08.023Z,101090.39
2018-02-17T07:48:35.571Z,101087.97
2018-02-17T07:51:03.147Z,101090.27
2018-02-17T07:53:30.775Z,101096.66
2018-02-17T07:55:58.403Z,101104.46
2018-02-17T07:58:25.978Z,101099.36
2018-02-17T08:00:53.616Z,101095.80
2018-02-17T08:03:21.194Z,101087.17
2018-02-17T08:05:48.769Z,101089.00
2018-02-17T08:08:16.413Z,101086.39
2018-02-17T08:10:43.979Z,101085.59
2018-02-17T08:13:11.673Z,101078.52
2018-02-17T08:15:39.238Z,101079.31
2018-02-17T08:18:06.802Z,101070.12
2018-02-17T08:20:34.393Z,101075.91
2018-02-17T08:23:01.967Z,101078.30
2018-02-17T08:25:29.542Z,101071.98
2018-02-17T08:27:57.180Z,101074.43
2018-02-17T08:30:24.838Z,101073.19
2018-02-17T08:32:52.475Z,101074.73
2018-02-17T08:35:20.105Z,101064.67
2018-02-17T08:37:47.679Z,101063.97
2018-02-17T08:40:15.311Z,101065.94
2018-02-17T08:42:42.886Z,101059.14
2018-02-17T08:45:10.448Z,101050.25
2018-02-17T08:47:38.079Z,101056.12
2018-02-17T08:50:05.642Z,101051.34
2018-02-17T08:52:33.320Z,101052.30
2018-02-17T08:55:00.896Z,101051.59
2018-02-17T08:57:28.536Z,101053.34
2018-02-17T08:59:56.259Z,101050.33
2018-02-17T09:02:23.830Z,101050.06
2018-02-17T09:04:51.443Z,101047.97
2018-02-17T09:07:19.019Z,101035.83
2018-02-17T09:09:46.647Z,101042.96
2018-02-17T09:12:14.258Z,101038.01
2018-02-17T09:14:41.837Z,101036.63
2018-02-17T09:17:09.436Z,101034.02
2018-02-17T09:19:37.004Z,101035.58
2018-02-17T09:22:04.646Z,101026.41
2018-02-17T09:24:32.227Z,101026.06
2018-02-17T09:26:59.833Z,101022.58
2018-02-17T09:29:27.479Z,101026.61
2018-02-17T09:31:55.050Z,101020.03
2018-02-17T09:34:22.684Z,101017.10
2018-02-17T09:36:50.319Z,101015.14
2018-02-17T09:39:17.883Z,101014.73
2018-02-17T09:44:44.425Z,101006.83
2018-02-17T09:47:12.067Z,100997.86
2018-02-17T09:49:39.652Z,100994.20
2018-02-17T09:52:07.288Z,100983.82
2018-02-17T09:54:34.862Z,100984.11
2018-02-17T09:57:02.439Z,100982.75
2018-02-17T09:59:30.076Z,100976.19
2018-02-17T10:01:57.664Z,100980.19
2018-02-17T10:04:25.247Z,100978.94
2018-02-17T10:06:52.865Z,100974.73
2018-02-17T10:09:20.481Z,100969.30
2018-02-17T10:11:48.054Z,100963.83
2018-02-17T10:14:15.691Z,100959.67
2018-02-17T10:16:43.327Z,100953.61
2018-02-17T10:19:10.902Z,100957.92
2018-02-17T10:21:38.484Z,100948.78
2018-02-17T10:24:06.037Z,100947.75
2018-02-17T10:26:33.672Z,100941.44
2018-02-17T10:29:01.308Z,100939.83
2018-02-17T10:31:28.887Z,100934.11
2018-02-17T10:33:56.480Z,100929.75
2018-02-17T10:36:24.107Z,100933.06
2018-02-17T10:38:51.696Z,100929.92
2018-02-17T10:41:19.314Z,100925.22
2018-02-17T10:43:46.927Z,100917.09
2018-02-17T10:46:14.511Z,100916.75
2018-02-17T10:48:42.162Z,100913.12
2018-02-17T10:51:09.755Z,100918.53
2018-02-17T10:53:37.326Z,100914.94
2018-02-17T10:56:04.911Z,100916.00
2018-02-17T10:58:32.470Z,100900.85
2018-02-17T11:01:00.159Z,100896.19
2018-02-17T11:03:27.732Z,100885.38
2018-02-17T11:05:55.317Z,100879.84
2018-02-17T11:08:22.960Z,100882.33
2018-02-17T11:10:50.525Z,100877.54
2018-02-17T11:13:18.136Z,100871.94
2018-02-17T11:18:18.475Z,100868.91
2018-02-17T11:20:46.018Z,100865.90
2018-02-17T11:23:13.564Z,100864.73
2018-02-17T11:25:41.127Z,100859.16
2018-02-17T11:28:08.674Z,100849.64
2018-02-17T11:30:36.226Z,100850.44
2018-02-17T11:33:03.775Z,100842.14
2018-02-17T11:35:31.394Z,100837.36
2018-02-17T11:37:58.943Z,100828.68
2018-02-17T11:40:26.486Z,100824.03
2018-02-17T11:42:54.222Z,100830.19
2018-02-17T11:45:21.932Z,100828.00
2018-02-17T11:47:49.655Z,100825.27
2018-02-17T11:50:17.375Z,100810.48
2018-02-17T11:52:45.191Z,100805.34
2018-02-17T11:55:12.930Z,100796.06
2018-02-17T11:57:40.677Z,100795.91
2018-02-17T12:00:08.397Z,100797.39
2018-02-17T12:02:36.117Z,100799.45
2018-02-17T12:05:03.847Z,100793.95
2018-02-17T12:07:31.548Z,100787.97
2018-02-17T12:09:59.328Z,100800.03
2018-02-17T12:12:27.028Z,100801.83
2018-02-17T12:14:54.738Z,100807.49
2018-02-17T12:17:22.483Z,100795.99
2018-02-17T12:19:50.206Z,100788.06
2018-02-17T12:22:17.951Z,100783.91
2018-02-17T12:24:45.696Z,100776.22
2018-02-17T12:27:13.449Z,100773.34
2018-02-17T12:29:41.170Z,100777.46
2018-02-17T12:32:08.892Z,100769.09
2018-02-17T12:34:36.623Z,100765.95
2018-02-17T12:37:04.345Z,100768.87
2018-02-17T12:39:32.072Z,100776.58
2018-02-17T12:41:59.796Z,100774.13
2018-02-17T12:44:27.403Z,100771.45
2018-02-17T12:46:55.034Z,100775.22
2018-02-17T12:49:22.606Z,100772.52
2018-02-17T12:51:50.195Z,100770.52
2018-02-17T12:54:17.827Z,100770.48
2018-02-17T12:56:45.412Z,100762.45
2018-02-17T12:59:12.987Z,100767.05
2018-02-17T13:01:40.670Z,100760.16
2018-02-17T13:04:08.243Z,100748.95
2018-02-17T13:06:35.880Z,100754.10
2018-02-17T13:09:03.538Z,100745.06
2018-02-17T13:11:31.107Z,100743.95
2018-02-17T13:13:58.733Z,100753.90
2018-02-17T13:16:26.334Z,100740.45
2018-02-17T13:18:53.963Z,100735.06
2018-02-17T13:21:21.589Z,100730.88
2018-02-17T13:23:49.158Z,100729.02
2018-02-17T13:26:16.789Z,100724.59
2018-02-17T13:28:44.371Z,100720.86
2018-02-17T13:31:11.951Z,100725.66
2018-02-17T13:33:39.519Z,100725.95
2018-02-17T13:36:07.179Z,100717.44
2018-02-17T13:38:34.751Z,100716.70
2018-02-17T13:41:02.318Z,100718.09
2018-02-17T13:43:29.921Z,100721.02
2018-02-17T13:45:57.559Z,100721.16
2018-02-17T13:48:25.133Z,100711.81
2018-02-17T13:50:52.760Z,100709.01
2018-02-17T13:53:20.383Z,100708.03
2018-02-17T13:55:48.021Z,100699.31
2018-02-17T13:58:15.646Z,100701.73
2018-02-17T14:00:43.227Z,100692.87
2018-02-17T14:03:10.794Z,100687.92
2018-02-17T14:05:38.418Z,100688.01
2018-02-17T14:08:05.999Z,100686.09
2018-02-17T14:10:33.572Z,100683.34
2018-02-17T14:13:01.152Z,100681.20
2018-02-17T14:15:28.708Z,100678.32
2018-02-17T14:17:56.381Z,100679.47
2018-02-17T14:20:23.954Z,100680.86
2018-02-17T14:22:51.522Z,100678.55
2018-02-17T14:25:19.199Z,100679.69
2018-02-17T14:27:46.758Z,100677.75
2018-02-17T14:30:14.389Z,100675.91
2018-02-17T14:32:41.974Z,100677.75
2018-02-17T14:35:09.540Z,100678.69
2018-02-17T14:37:37.268Z,100678.17
2018-02-17T14:40:04.870Z,100683.63
2018-02-17T14:42:32.499Z,100685.52
2018-02-17T14:45:00.076Z,100691.37
2018-02-17T14:47:27.711Z,100683.05
2018-02-17T14:49:55.308Z,100682.42
2018-02-17T14:52:22.947Z,100679.73
2018-02-17T14:54:50.567Z,100681.05
2018-02-17T14:57:18.142Z,100672.91
2018-02-17T14:59:45.766Z,100673.48
2018-02-17T15:02:13.416Z,100673.14
2018-02-17T15:04:40.986Z,100669.02
2018-02-17T15:07:08.563Z,100674.11
2018-02-17T15:09:36.132Z,100667.52
2018-02-17T15:12:03.734Z,100673.00
2018-02-17T15:14:31.306Z,100667.39
2018-02-17T15:16:58.987Z,100666.05
2018-02-17T15:19:26.558Z,100661.29
2018-02-17T15:21:54.110Z,100670.00
2018-02-17T15:24:21.699Z,100659.10
2018-02-17T15:26:49.270Z,100661.67
2018-02-17T15:29:17.055Z,100665.93
2018-02-17T15:31:44.633Z,100671.67
2018-02-17T15:34:12.275Z,100674.05
2018-02-17T15:36:39.843Z,100672.34
2018-02-17T15:39:07.490Z,100670.73
2018-02-17T15:41:35.073Z,100672.53
2018-02-17T15:44:02.655Z,100679.08
2018-02-17T15:46:30.236Z,100677.02
2018-02-17T15:48:57.888Z,100680.21
2018-02-17T15:51:25.525Z,100682.16
2018-02-17T15:53:53.090Z,100685.19
2018-02-17T15:56:20.810Z,100683.15
2018-02-17T15:58:48.775Z,100682.42
2018-02-17T16:01:16.527Z,100686.72
2018-02-17T16:03:44.173Z,100679.00
2018-02-17T16:06:12.123Z,100684.75
2018-02-17T16:08:39.815Z,100683.64
2018-02-17T16:11:07.455Z,100678.75
2018-02-17T16:13:35.092Z,100677.66
2018-02-17T16:16:02.679Z,100671.50
2018-02-17T16:18:30.252Z,100678.91
2018-02-17T16:20:57.890Z,100675.88
2018-02-17T16:23:25.523Z,100682.62
2018-02-17T16:25:53.154Z,100679.84
2018-02-17T16:28:20.788Z,100684.63
2018-02-17T16:30:48.431Z,100687.92
2018-02-17T16:33:16.079Z,100681.72
2018-02-17T16:35:43.655Z,100682.09
2018-02-17T16:38:11.310Z,100688.81
2018-02-17T16:40:38.948Z,100685.12
2018-02-17T16:43:06.571Z,100691.30
2018-02-17T16:45:34.234Z,100683.79
2018-02-17T16:48:01.869Z,100687.67
2018-02-17T16:50:29.498Z,100691.31
2018-02-17T16:52:57.145Z,100693.80
2018-02-17T16:55:24.903Z,100691.20
2018-02-17T16:57:53.893Z,100687.56
2018-02-17T17:00:21.475Z,100684.09
2018-02-17T17:02:49.057Z,100683.18
2018-02-17T17:05:16.677Z,100684.39
2018-02-17T17:07:44.312Z,100678.27
2018-02-17T17:10:11.996Z,100672.24
2018-02-17T17:12:39.677Z,100676.89
2018-02-17T17:15:07.239Z,100673.44
2018-02-17T17:17:34.797Z,100672.95
2018-02-17T17:20:02.374Z,100673.75
2018-02-17T17:22:29.995Z,100669.48
2018-02-17T17:24:57.922Z,100659.17
2018-02-17T17:27:25.503Z,100659.41
2018-02-17T17:29:53.100Z,100654.63
2018-02-17T17:32:20.740Z,100660.57
2018-02-17T17:34:48.380Z,100657.69
2018-02-17T17:37:16.010Z,100659.99
2018-02-17T17:39:43.653Z,100654.17
2018-02-17T17:42:11.288Z,100654.61
2018-02-17T17:44:38.962Z,100652.93
2018-02-17T17:47:06.515Z,100651.68
2018-02-17T17:49:34.098Z,100654.22
2018-02-17T17:52:01.680Z,100657.55
2018-02-17T17:54:29.332Z,100654.00
2018-02-17T17:56:56.938Z,100647.98
2018-02-17T17:59:24.522Z,100655.25
2018-02-17T18:01:52.178Z,100650.04
2018-02-17T18:04:19.836Z,100655.32
2018-02-17T18:06:47.491Z,100655.02
2018-02-17T18:09:15.128Z,100660.50
2018-02-17T18:11:42.848Z,100661.49
2018-02-17T18:14:10.423Z,100661.77
2018-02-17T18:16:38.058Z,100659.54
2018-02-17T18:19:05.648Z,100651.30
2018-02-17T18:21:33.231Z,100654.76
2018-02-17T18:24:00.894Z,100648.59
2018-02-17T18:26:28.474Z,100641.42
2018-02-17T18:28:56.163Z,100651.84
2018-02-17T18:31:23.793Z,100646.33
2018-02-17T18:33:51.376Z,100646.49
2018-02-17T18:36:19.011Z,100637.13
2018-02-17T18:38:46.597Z,100635.23
2018-02-17T18:41:14.235Z,100627.22
2018-02-17T18:43:41.816Z,100625.69
2018-02-17T18:46:09.556Z,100635.62
2018-02-17T18:48:37.197Z,100633.05
2018-02-17T18:51:04.772Z,100631.45
2018-02-17T18:53:32.357Z,100628.72
2018-02-17T18:55:59.997Z,100636.55
2018-02-17T18:58:27.570Z,100633.19
2018-02-17T19:00:55.193Z,100629.88
2018-02-17T19:03:22.859Z,100633.59
2018-02-17T19:05:50.435Z,100631.39
2018-02-17T19:08:18.064Z,100628.00
2018-02-17T19:10:45.689Z,100633.47
2018-02-17T19:13:13.303Z,100627.52
2018-02-17T19:15:40.897Z,100626.51
2018-02-17T19:18:08.530Z,100631.64
2018-02-17T19:20:36.227Z,100630.58
2018-02-17T19:23:03.803Z,100627.16
2018-02-17T19:25:31.380Z,100630.19
2018-02-17T19:27:58.982Z,100628.73
2018-02-17T19:30:26.559Z,100627.03
2018-02-17T19:32:54.195Z,100624.48
2018-02-17T19:35:21.766Z,100622.51
2018-02-17T19:37:49.410Z,100619.14
2018-02-17T19:40:17.051Z,100617.65
2018-02-17T19:42:44.635Z,100618.45
2018-02-17T19:45:12.292Z,100621.84
2018-02-17T19:47:39.923Z,100613.34
2018-02-17T19:50:07.496Z,100611.59
2018-02-17T19:52:35.067Z,100601.88
2018-02-17T19:55:02.813Z,100604.00
2018-02-17T19:57:30.428Z,100604.11
2018-02-17T19:59:57.982Z,100602.12
2018-02-17T20:02:25.588Z,100592.66
2018-02-17T20:04:53.177Z,100589.05
2018-02-17T20:07:20.751Z,100597.44
2018-02-17T20:09:48.337Z,100600.63
2018-02-17T20:12:15.967Z,100598.55
2018-02-17T20:14:43.556Z,100590.83
2018-02-17T20:17:11.129Z,100583.34
2018-02-17T20:19:38.722Z,100587.25
2018-02-17T20:22:06.295Z,100584.59
2018-02-17T20:24:33.877Z,100579.97
2018-02-17T20:27:01.464Z,100578.33
2018-02-17T20:29:29.110Z,100576.33
2018-02-17T20:31:56.690Z,100583.39
2018-02-17T20:34:24.305Z,100589.69
2018-02-17T20:36:51.909Z,100589.95
2018-02-17T20:39:19.480Z,100589.92
2018-02-17T20:41:47.057Z,100581.52
2018-02-17T20:44:14.682Z,100581.31
2018-02-17T20:46:42.319Z,100573.03
2018-02-17T20:49:09.903Z,100573.01
2018-02-17T20:51:37.481Z,100574.12
2018-02-17T20:54:05.055Z,100575.11
2018-02-17T20:56:32.680Z,100573.84
2018-02-17T20:59:00.257Z,100563.95
2018-02-17T21:01:27.955Z,100561.30
2018-02-17T21:03:55.574Z,100551.94
2018-02-17T21:06:23.144Z,100552.55
2018-02-17T21:08:50.719Z,100548.66
2018-02-17T21:11:18.310Z,100550.58
2018-02-17T21:13:46.718Z,100544.79
2018-02-17T21:16:14.298Z,100540.36
2018-02-17T21:18:41.912Z,100537.72
2018-02-17T21:21:09.594Z,100536.64
2018-02-17T21:23:37.228Z,100538.18
2018-02-17T21:26:04.830Z,100532.70
2018-02-17T21:28:32.412Z,100534.45
2018-02-17T21:31:00.004Z,100533.41
2018-02-17T21:33:27.586Z,100530.58
2018-02-17T21:35:55.204Z,100529.78
2018-02-17T21:38:22.882Z,100525.42
2018-02-17T21:40:50.446Z,100523.98
2018-02-17T21:43:18.049Z,100521.61
2018-02-17T21:45:45.645Z,100521.48
2018-02-17T21:48:13.275Z,100519.53
2018-02-17T21:50:40.911Z,100514.48
2018-02-17T21:53:08.535Z,100519.16
2018-02-17T21:55:36.235Z,100507.99
2018-02-17T21:58:03.859Z,100511.36
2018-02-17T22:00:31.494Z,100514.81
2018-02-17T22:02:59.065Z,100508.95
2018-02-17T22:05:26.647Z,100503.53
2018-02-17T22:07:54.238Z,100501.08
2018-02-17T22:10:21.803Z,100492.31
2018-02-17T22:12:49.431Z,100493.27
2018-02-17T22:15:17.008Z,100495.81
2018-02-17T22:17:44.639Z,100497.52
2018-02-17T22:20:12.236Z,100496.23
2018-02-17T22:22:39.870Z,100494.27
2018-02-17T22:25:07.459Z,100499.78
2018-02-17T22:27:35.025Z,100497.38
2018-02-17T22:30:02.680Z,100486.11
2018-02-17T22:32:30.304Z,100485.09
2018-02-17T22:34:57.927Z,100484.30
2018-02-17T22:37:25.563Z,100478.34
2018-02-17T22:39:53.195Z,100476.33
2018-02-17T22:42:20.778Z,100473.55
2018-02-17T22:44:48.332Z,100467.75
2018-02-17T22:47:16.015Z,100474.72
2018-02-17T22:49:43.646Z,100466.42
2018-02-17T22:52:11.214Z,100467.84
2018-02-17T22:54:38.795Z,100463.98
2018-02-17T22:57:06.373Z,100463.06
2018-02-17T22:59:33.955Z,100460.27
2018-02-17T23:02:01.524Z,100460.05
2018-02-17T23:04:29.216Z,100451.33
2018-02-17T23:06:56.847Z,100448.07
2018-02-17T23:09:24.475Z,100450.55
2018-02-17T23:11:52.057Z,100450.66
2018-02-17T23:14:19.691Z,100440.63
2018-02-17T23:16:47.266Z,100443.52
2018-02-17T23:19:14.854Z,100442.91
2018-02-17T23:21:42.542Z,100439.10
2018-02-17T23:24:10.192Z,100434.98
2018-02-17T23:26:37.758Z,100433.90
2018-02-17T23:29:05.396Z,100432.23
2018-02-17T23:31:32.964Z,100434.46
2018-02-17T23:34:00.609Z,100428.29
2018-02-17T23:36:28.187Z,100425.09
2018-02-17T23:38:55.810Z,100432.09
2018-02-17T23:41:23.420Z,100425.77
2018-02-17T23:43:51.048Z,100427.98
2018-02-17T23:46:18.628Z,100429.10
2018-02-17T23:48:46.244Z,100427.77
2018-02-17T23:51:13.824Z,100423.27
2018-02-17T23:53:41.387Z,100421.47
2018-02-17T23:56:09.021Z,100419.89
2018-02-17T23:58:36.605Z,100423.84
